Terminal Aerodrome Forecast
Issued by NWS Lake Charles, LA

Home | Current Version | Previous Version | Text Only | Print | Product List | Glossary On
Versions: 1 2 3 4 5 6 7 8 9 10 11 12 13 14 15 16 17 18
584
FTUS44 KLCH 101142
TAFBPT
TAF
KBPT 101142Z 1012/1112 05008KT P6SM FEW070
     FM101800 08010KT P6SM SCT070
     FM110200 11008KT P6SM BKN070=

USA.gov is the U.S. government's official web portal to all federal, state and local government web resources and services.